createdAt,value
2023-07-21T00:02:08.916Z,56.78
2023-07-21T00:04:41.274Z,56.82
2023-07-21T00:07:14.001Z,56.77
2023-07-21T00:09:47.205Z,56.96
2023-07-21T00:12:20.262Z,57.05
2023-07-21T00:14:53.444Z,57.13
2023-07-21T00:17:26.860Z,57.08
2023-07-21T00:20:00.321Z,57.15
2023-07-21T00:22:33.006Z,57.24
2023-07-21T00:25:06.819Z,57.27
2023-07-21T00:27:39.609Z,57.40
2023-07-21T00:30:14.883Z,57.28
2023-07-21T00:32:47.458Z,57.38
2023-07-21T00:35:20.086Z,57.39
2023-07-21T00:37:52.533Z,57.42
2023-07-21T00:40:27.259Z,57.55
2023-07-21T00:43:01.228Z,57.50
2023-07-21T00:45:38.601Z,57.51
2023-07-21T00:48:12.369Z,57.50
2023-07-21T00:50:49.876Z,57.52
2023-07-21T00:53:23.156Z,57.67
2023-07-21T00:55:55.553Z,57.64
2023-07-21T00:58:28.241Z,57.77
2023-07-21T01:01:03.383Z,57.74
2023-07-21T01:03:36.950Z,57.76
2023-07-21T01:06:11.464Z,57.71
2023-07-21T01:08:44.213Z,57.81
2023-07-21T01:11:17.702Z,57.80
2023-07-21T01:13:50.844Z,57.78
2023-07-21T01:16:25.367Z,58.00
2023-07-21T01:18:58.816Z,57.92
2023-07-21T01:21:38.053Z,58.01
2023-07-21T01:24:18.437Z,58.07
2023-07-21T01:26:52.114Z,58.11
2023-07-21T01:29:25.710Z,58.12
2023-07-21T01:32:01.234Z,58.08
2023-07-21T01:34:36.418Z,58.06
2023-07-21T01:37:09.975Z,58.11
2023-07-21T01:39:43.756Z,58.14
2023-07-21T01:42:16.325Z,58.30
2023-07-21T01:44:48.869Z,58.18
2023-07-21T01:47:22.603Z,58.25
2023-07-21T01:49:55.010Z,58.27
2023-07-21T01:52:28.855Z,58.19
2023-07-21T01:55:10.339Z,58.40
2023-07-21T01:57:57.770Z,58.30
2023-07-21T02:00:48.098Z,58.36
2023-07-21T02:03:25.610Z,58.25
2023-07-21T02:05:58.175Z,58.31
2023-07-21T02:08:30.844Z,58.46
2023-07-21T02:11:03.819Z,58.51
2023-07-21T02:14:02.398Z,58.52
2023-07-21T02:16:37.381Z,58.69
2023-07-21T02:19:10.692Z,58.59
2023-07-21T02:21:43.726Z,58.68
2023-07-21T02:24:16.168Z,58.63
2023-07-21T02:26:48.681Z,58.64
2023-07-21T02:29:21.326Z,58.53
2023-07-21T02:31:53.938Z,58.62
2023-07-21T02:34:26.534Z,58.69
2023-07-21T02:36:59.220Z,58.72
2023-07-21T02:39:32.361Z,58.78
2023-07-21T02:42:05.277Z,58.80
2023-07-21T02:44:37.790Z,58.79
2023-07-21T02:47:11.477Z,58.78
2023-07-21T02:49:44.591Z,58.86
2023-07-21T02:52:17.389Z,58.82
2023-07-21T02:54:52.375Z,58.83
2023-07-21T02:57:25.568Z,58.91
2023-07-21T02:59:58.102Z,58.90
2023-07-21T03:02:35.454Z,58.85
2023-07-21T03:05:10.030Z,58.81
2023-07-21T03:07:42.898Z,58.81
2023-07-21T03:10:17.698Z,58.83
2023-07-21T03:12:50.962Z,58.79
2023-07-21T03:15:28.634Z,58.82
2023-07-21T03:18:27.531Z,58.96
2023-07-21T03:21:23.380Z,58.85
2023-07-21T03:23:57.425Z,58.81
2023-07-21T03:26:32.119Z,58.83
2023-07-21T03:29:06.524Z,58.87
2023-07-21T03:31:40.263Z,58.88
2023-07-21T03:34:20.075Z,58.83
2023-07-21T03:36:52.823Z,58.92
2023-07-21T03:39:26.498Z,59.00
2023-07-21T03:42:00.766Z,58.96
2023-07-21T03:44:33.099Z,59.06
2023-07-21T03:47:06.535Z,59.05
2023-07-21T03:49:46.576Z,59.03
2023-07-21T03:52:19.921Z,59.08
2023-07-21T03:54:53.012Z,59.19
2023-07-21T03:57:27.056Z,59.11
2023-07-21T03:59:59.688Z,59.14
2023-07-21T04:02:32.132Z,59.29
2023-07-21T04:05:04.974Z,59.19
2023-07-21T04:07:37.704Z,59.29
2023-07-21T04:10:12.213Z,59.17
2023-07-21T04:12:44.885Z,59.35
2023-07-21T04:15:17.799Z,59.36
2023-07-21T04:17:50.221Z,59.42
2023-07-21T04:20:23.638Z,59.37
2023-07-21T04:22:56.230Z,59.42
2023-07-21T04:25:29.720Z,59.44
2023-07-21T04:28:06.936Z,59.51
2023-07-21T04:30:42.051Z,59.56
2023-07-21T04:33:15.107Z,59.54
2023-07-21T04:35:49.281Z,59.58
2023-07-21T04:38:28.099Z,59.53
2023-07-21T04:41:10.807Z,59.70
2023-07-21T04:43:43.681Z,59.79
2023-07-21T04:46:16.480Z,59.78
2023-07-21T04:48:49.413Z,59.81
2023-07-21T04:51:31.582Z,59.95
2023-07-21T04:54:04.044Z,59.94
2023-07-21T04:56:36.635Z,60.03
2023-07-21T04:59:09.880Z,60.11
2023-07-21T05:01:43.120Z,60.11
2023-07-21T05:04:16.043Z,60.13
2023-07-21T05:06:49.067Z,60.15
2023-07-21T05:09:21.956Z,60.18
2023-07-21T05:11:55.604Z,60.16
2023-07-21T05:15:00.811Z,60.26
2023-07-21T05:17:52.900Z,60.35
2023-07-21T05:20:41.079Z,60.26
2023-07-21T05:23:34.129Z,60.43
2023-07-21T05:26:14.523Z,60.26
2023-07-21T05:28:47.970Z,60.33
2023-07-21T05:31:21.481Z,60.24
2023-07-21T05:34:08.896Z,60.22
2023-07-21T05:36:42.525Z,60.24
2023-07-21T05:39:14.973Z,60.21
2023-07-21T05:41:47.545Z,60.34
2023-07-21T05:44:20.385Z,60.21
2023-07-21T05:46:52.939Z,60.22
2023-07-21T05:49:25.393Z,60.11
2023-07-21T05:51:59.337Z,60.06
2023-07-21T05:54:40.647Z,60.11
2023-07-21T05:57:14.991Z,59.93
2023-07-21T05:59:50.777Z,59.72
2023-07-21T06:02:23.386Z,59.69
2023-07-21T06:05:01.373Z,59.57
2023-07-21T06:07:45.883Z,59.53
2023-07-21T06:10:23.834Z,59.43
2023-07-21T06:13:10.163Z,59.46
2023-07-21T06:16:10.546Z,59.43
2023-07-21T06:18:48.767Z,59.38
2023-07-21T06:21:22.395Z,59.34
2023-07-21T06:23:54.943Z,59.37
2023-07-21T06:26:28.808Z,59.25
2023-07-21T06:29:01.934Z,58.88
2023-07-21T06:31:34.736Z,58.67
2023-07-21T06:34:27.520Z,58.41
2023-07-21T06:37:18.906Z,58.41
2023-07-21T06:40:20.627Z,57.99
2023-07-21T06:43:19.649Z,57.89
2023-07-21T06:46:11.135Z,57.86
2023-07-21T06:49:12.564Z,57.79
2023-07-21T06:51:57.125Z,57.65
2023-07-21T06:54:32.193Z,57.32
2023-07-21T06:57:06.662Z,57.16
2023-07-21T06:59:39.672Z,56.93
2023-07-21T07:02:14.015Z,56.84
2023-07-21T07:04:46.546Z,56.72
2023-07-21T07:07:19.813Z,56.44
2023-07-21T07:09:52.477Z,55.98
2023-07-21T07:12:27.385Z,55.90
2023-07-21T07:15:00.153Z,56.00
2023-07-21T07:17:32.735Z,55.89
2023-07-21T07:20:08.654Z,55.61
2023-07-21T07:22:41.367Z,55.03
2023-07-21T07:25:14.390Z,55.10
2023-07-21T07:27:47.039Z,55.18
2023-07-21T07:30:21.964Z,55.02
2023-07-21T07:32:54.905Z,54.61
2023-07-21T07:35:27.751Z,54.34
2023-07-21T07:38:00.610Z,54.21
2023-07-21T07:40:36.177Z,53.93
2023-07-21T07:43:09.752Z,53.78
2023-07-21T07:45:42.413Z,52.85
2023-07-21T07:48:15.748Z,53.07
2023-07-21T07:50:48.472Z,52.63
2023-07-21T07:53:20.887Z,52.59
2023-07-21T07:55:54.626Z,52.31
2023-07-21T07:58:27.483Z,51.66
2023-07-21T08:01:04.315Z,52.13
2023-07-21T08:03:38.444Z,52.00
2023-07-21T08:06:11.028Z,51.52
2023-07-21T08:08:44.290Z,51.67
2023-07-21T08:11:17.471Z,51.10
2023-07-21T08:13:50.098Z,51.14
2023-07-21T08:16:22.791Z,51.02
2023-07-21T08:18:55.552Z,50.88
2023-07-21T08:21:29.523Z,50.36
2023-07-21T08:24:02.188Z,50.42
2023-07-21T08:26:34.648Z,50.88
2023-07-21T08:29:09.403Z,50.40
2023-07-21T08:31:42.165Z,49.64
2023-07-21T08:34:15.212Z,49.83
2023-07-21T08:36:54.457Z,50.05
2023-07-21T08:39:28.020Z,49.18
2023-07-21T08:42:04.716Z,49.26
2023-07-21T08:44:39.069Z,48.97
2023-07-21T08:47:09.863Z,48.65
2023-07-21T08:49:42.243Z,48.83
2023-07-21T08:52:14.904Z,48.73
2023-07-21T08:54:47.462Z,48.47
2023-07-21T08:57:20.459Z,48.64
2023-07-21T08:59:56.129Z,48.41
2023-07-21T09:02:43.291Z,47.58
2023-07-21T09:05:21.080Z,46.81
2023-07-21T09:07:54.051Z,46.69
2023-07-21T09:10:36.316Z,47.25
2023-07-21T09:13:18.436Z,47.25
2023-07-21T09:15:58.567Z,47.13
2023-07-21T09:18:32.856Z,46.72
2023-07-21T09:21:05.763Z,45.97
2023-07-21T09:23:39.790Z,46.25
2023-07-21T09:26:12.203Z,46.30
2023-07-21T09:28:46.541Z,45.91
2023-07-21T09:31:19.248Z,45.98
2023-07-21T09:33:51.962Z,46.23
2023-07-21T09:36:27.241Z,46.17
2023-07-21T09:39:02.572Z,45.90
2023-07-21T09:41:36.878Z,45.43
2023-07-21T09:44:10.515Z,45.21
2023-07-21T09:46:44.314Z,45.00
2023-07-21T09:49:17.049Z,44.67
2023-07-21T09:51:52.283Z,44.46
2023-07-21T09:54:30.793Z,44.13
2023-07-21T09:57:05.203Z,43.45
2023-07-21T09:59:40.781Z,43.65
2023-07-21T10:02:14.311Z,43.86
2023-07-21T10:04:47.502Z,43.27
2023-07-21T10:07:20.829Z,43.49
2023-07-21T10:09:54.767Z,43.18
2023-07-21T10:12:41.699Z,43.49
2023-07-21T10:15:30.237Z,43.39
2023-07-21T10:18:04.821Z,43.39
2023-07-21T10:20:51.881Z,42.66
2023-07-21T10:23:28.412Z,42.65
2023-07-21T10:26:04.578Z,42.24
2023-07-21T10:28:40.096Z,42.39
2023-07-21T10:31:37.887Z,41.80
2023-07-21T10:34:16.217Z,41.47
2023-07-21T10:36:59.041Z,41.81
2023-07-21T10:39:32.915Z,41.50
2023-07-21T10:42:07.267Z,41.36
2023-07-21T10:44:41.409Z,40.65
2023-07-21T10:47:16.976Z,40.54
2023-07-21T10:49:50.835Z,40.66
2023-07-21T10:52:24.260Z,40.89
2023-07-21T10:55:01.280Z,41.25
2023-07-21T10:57:39.300Z,40.67
2023-07-21T11:00:17.174Z,40.04
2023-07-21T11:02:55.113Z,40.17
2023-07-21T11:05:27.738Z,39.44
2023-07-21T11:08:00.937Z,39.44
2023-07-21T11:10:36.672Z,39.55
2023-07-21T11:13:09.199Z,39.47
2023-07-21T11:15:42.037Z,39.02
2023-07-21T11:18:14.586Z,38.99
2023-07-21T11:20:53.254Z,38.91
2023-07-21T11:23:27.387Z,39.40
2023-07-21T11:26:11.517Z,38.68
2023-07-21T11:28:44.899Z,38.11
2023-07-21T11:31:19.704Z,37.93
2023-07-21T11:33:52.920Z,38.58
2023-07-21T11:36:26.550Z,37.98
2023-07-21T11:39:05.945Z,37.08
2023-07-21T11:41:51.199Z,38.00
2023-07-21T11:44:25.787Z,38.15
2023-07-21T11:47:06.682Z,37.69
2023-07-21T11:49:43.070Z,37.80
2023-07-21T11:52:26.190Z,38.10
2023-07-21T11:55:02.746Z,37.79
2023-07-21T11:57:35.801Z,36.51
2023-07-21T12:00:13.550Z,37.31
2023-07-21T12:02:46.162Z,36.87
2023-07-21T12:05:19.320Z,36.92
2023-07-21T12:07:53.596Z,36.42
2023-07-21T12:10:25.042Z,36.87
2023-07-21T12:12:57.777Z,37.13
2023-07-21T12:15:31.071Z,37.11
2023-07-21T12:18:04.792Z,37.05
2023-07-21T12:20:37.613Z,36.97
2023-07-21T12:23:16.608Z,37.02
2023-07-21T12:25:49.792Z,37.01
2023-07-21T12:28:22.952Z,36.65
2023-07-21T12:30:57.723Z,36.89
2023-07-21T12:33:30.911Z,37.06
2023-07-21T12:36:04.454Z,36.90
2023-07-21T12:38:37.216Z,36.98
2023-07-21T12:41:09.774Z,36.80
2023-07-21T12:43:42.285Z,36.55
2023-07-21T12:46:16.305Z,36.58
2023-07-21T12:48:49.083Z,36.85
2023-07-21T12:51:21.915Z,36.55
2023-07-21T12:53:54.687Z,36.52
2023-07-21T12:56:27.778Z,36.33
2023-07-21T12:59:01.092Z,36.44
2023-07-21T13:01:33.771Z,36.30
2023-07-21T13:04:08.914Z,36.36
2023-07-21T13:06:45.765Z,36.67
2023-07-21T13:09:18.345Z,36.44
2023-07-21T13:11:51.740Z,36.01
2023-07-21T13:14:26.559Z,35.75
2023-07-21T13:16:59.088Z,35.73
2023-07-21T13:19:31.862Z,35.84
2023-07-21T13:22:06.630Z,35.56
2023-07-21T13:24:39.475Z,35.72
2023-07-21T13:27:12.271Z,35.62
2023-07-21T13:29:45.052Z,35.47
2023-07-21T13:32:17.554Z,35.53
2023-07-21T13:34:50.173Z,35.67
2023-07-21T13:37:22.695Z,35.72
2023-07-21T13:39:55.798Z,34.89
2023-07-21T13:42:28.747Z,34.90
2023-07-21T13:45:01.386Z,35.03
2023-07-21T13:47:34.457Z,34.71
2023-07-21T13:50:10.463Z,35.15
2023-07-21T13:52:43.196Z,34.71
2023-07-21T13:55:15.654Z,35.06
2023-07-21T13:57:48.190Z,34.46
2023-07-21T14:00:23.052Z,34.56
2023-07-21T14:02:55.435Z,34.78
2023-07-21T14:05:27.958Z,34.88
2023-07-21T14:08:00.529Z,34.39
2023-07-21T14:10:32.993Z,34.34
2023-07-21T14:13:05.583Z,34.53
2023-07-21T14:15:38.256Z,34.85
2023-07-21T14:18:10.827Z,34.34
2023-07-21T14:20:43.504Z,34.52
2023-07-21T14:23:16.026Z,34.25
2023-07-21T14:25:48.552Z,34.28
2023-07-21T14:28:20.926Z,34.33
2023-07-21T14:30:53.462Z,34.58
2023-07-21T14:33:26.042Z,34.37
2023-07-21T14:35:58.871Z,34.22
2023-07-21T14:38:32.940Z,34.17
2023-07-21T14:41:04.570Z,33.79
2023-07-21T14:43:37.202Z,34.07
2023-07-21T14:46:09.986Z,34.15
2023-07-21T14:48:42.482Z,34.47
2023-07-21T14:51:15.315Z,34.20
2023-07-21T14:53:47.888Z,34.37
2023-07-21T14:56:20.744Z,34.33
2023-07-21T14:58:53.711Z,34.40
2023-07-21T15:01:26.427Z,34.21
2023-07-21T15:03:59.449Z,34.28
2023-07-21T15:06:32.113Z,34.28
2023-07-21T15:09:06.496Z,34.30
2023-07-21T15:11:40.566Z,34.22
2023-07-21T15:14:13.491Z,34.09
2023-07-21T15:16:47.727Z,33.99
2023-07-21T15:19:19.344Z,33.97
2023-07-21T15:21:51.864Z,33.90
2023-07-21T15:24:25.289Z,34.04
2023-07-21T15:27:02.281Z,34.02
2023-07-21T15:29:34.884Z,33.96
2023-07-21T15:32:09.175Z,34.07
2023-07-21T15:34:43.025Z,34.04
2023-07-21T15:37:15.789Z,34.00
2023-07-21T15:39:48.340Z,33.91
2023-07-21T15:42:21.398Z,33.88
2023-07-21T15:44:54.425Z,33.74
2023-07-21T15:47:26.940Z,33.86
2023-07-21T15:49:59.632Z,33.90
2023-07-21T15:52:32.094Z,33.68
2023-07-21T15:55:05.090Z,33.85
2023-07-21T15:57:37.563Z,33.84
2023-07-21T16:00:17.435Z,33.78
2023-07-21T16:02:51.034Z,33.71
2023-07-21T16:05:24.242Z,33.80
2023-07-21T16:07:57.119Z,33.80
2023-07-21T16:10:29.881Z,33.83
2023-07-21T16:13:02.556Z,33.77
2023-07-21T16:15:34.957Z,33.72
2023-07-21T16:18:07.546Z,33.72
2023-07-21T16:20:40.082Z,33.79
2023-07-21T16:23:13.419Z,33.78
2023-07-21T16:25:46.211Z,33.67
2023-07-21T16:28:18.602Z,33.76
2023-07-21T16:30:54.489Z,33.68
2023-07-21T16:33:27.174Z,33.69
2023-07-21T16:35:59.660Z,33.63
2023-07-21T16:38:33.020Z,33.69
2023-07-21T16:41:05.942Z,33.70
2023-07-21T16:43:38.493Z,33.72
2023-07-21T16:46:12.531Z,33.72
2023-07-21T16:48:45.267Z,33.64
2023-07-21T16:51:17.771Z,33.71
2023-07-21T16:53:50.323Z,33.59
2023-07-21T16:56:22.716Z,33.62
2023-07-21T16:58:55.183Z,33.59
2023-07-21T17:01:27.944Z,33.50
2023-07-21T17:04:01.405Z,33.56
2023-07-21T17:06:34.658Z,33.62
2023-07-21T17:09:07.898Z,33.69
2023-07-21T17:11:41.578Z,33.74
2023-07-21T17:14:13.984Z,33.71
2023-07-21T17:17:00.998Z,33.83
2023-07-21T17:19:52.448Z,33.89
2023-07-21T17:22:26.317Z,33.84
2023-07-21T17:25:06.285Z,33.91
2023-07-21T17:27:39.059Z,33.89
2023-07-21T17:30:14.418Z,33.89
2023-07-21T17:32:55.755Z,33.92
2023-07-21T17:35:28.782Z,33.99
2023-07-21T17:38:02.910Z,33.99
2023-07-21T17:40:39.157Z,33.95
2023-07-21T17:43:15.427Z,33.91
2023-07-21T17:45:50.051Z,34.06
2023-07-21T17:48:25.920Z,34.06
2023-07-21T17:51:01.004Z,34.04
2023-07-21T17:53:36.200Z,34.21
2023-07-21T17:56:10.414Z,34.35
2023-07-21T17:58:43.256Z,34.51
2023-07-21T18:01:16.301Z,34.57
2023-07-21T18:03:51.122Z,34.79
2023-07-21T18:06:23.620Z,34.87
2023-07-21T18:08:56.694Z,34.89
2023-07-21T18:11:29.363Z,34.96
2023-07-21T18:14:02.281Z,35.01
2023-07-21T18:16:35.016Z,35.22
2023-07-21T18:19:08.224Z,35.34
2023-07-21T18:21:41.211Z,35.37
2023-07-21T18:24:26.916Z,35.51
2023-07-21T18:27:02.092Z,35.73
2023-07-21T18:29:34.910Z,35.72
2023-07-21T18:32:13.896Z,35.85
2023-07-21T18:34:49.259Z,36.07
2023-07-21T18:37:30.024Z,36.13
2023-07-21T18:40:13.192Z,36.32
2023-07-21T18:42:53.606Z,36.56
2023-07-21T18:45:27.470Z,36.80
2023-07-21T18:48:03.133Z,37.16
2023-07-21T18:50:51.520Z,37.13
2023-07-21T18:53:28.037Z,37.46
2023-07-21T18:56:02.348Z,37.73
2023-07-21T18:58:35.588Z,37.93
2023-07-21T19:01:09.838Z,38.08
2023-07-21T19:03:48.566Z,38.27
2023-07-21T19:06:27.308Z,38.53
2023-07-21T19:09:05.183Z,38.75
2023-07-21T19:11:40.370Z,38.98
2023-07-21T19:14:18.256Z,39.19
2023-07-21T19:16:58.493Z,39.27
2023-07-21T19:19:35.932Z,39.42
2023-07-21T19:22:11.019Z,39.62
2023-07-21T19:24:46.138Z,39.92
2023-07-21T19:27:22.027Z,40.02
2023-07-21T19:29:55.325Z,40.24
2023-07-21T19:32:28.515Z,40.38
2023-07-21T19:35:01.688Z,40.48
2023-07-21T19:37:38.126Z,40.91
2023-07-21T19:40:16.408Z,40.79
2023-07-21T19:42:49.767Z,40.88
2023-07-21T19:45:22.635Z,41.17
2023-07-21T19:47:57.044Z,41.36
2023-07-21T19:50:28.318Z,41.56
2023-07-21T19:53:05.724Z,41.35
2023-07-21T19:55:42.319Z,41.59
2023-07-21T19:58:17.482Z,41.71
2023-07-21T20:00:54.575Z,41.83
2023-07-21T20:03:27.859Z,41.95
2023-07-21T20:06:01.496Z,41.99
2023-07-21T20:08:34.610Z,42.08
2023-07-21T20:11:07.514Z,42.14
2023-07-21T20:13:40.301Z,42.23
2023-07-21T20:16:13.436Z,42.31
2023-07-21T20:18:46.761Z,42.46
2023-07-21T20:21:22.793Z,42.60
2023-07-21T20:23:56.829Z,42.65
2023-07-21T20:26:29.443Z,42.83
2023-07-21T20:29:05.559Z,42.95
2023-07-21T20:31:38.362Z,43.08
2023-07-21T20:34:11.533Z,43.15
2023-07-21T20:36:45.457Z,43.26
2023-07-21T20:39:17.950Z,43.48
2023-07-21T20:41:50.755Z,43.40
2023-07-21T20:44:23.233Z,43.58
2023-07-21T20:46:57.224Z,43.63
2023-07-21T20:49:29.820Z,43.67
2023-07-21T20:52:02.248Z,43.74
2023-07-21T20:54:34.609Z,43.95
2023-07-21T20:57:13.087Z,43.96
2023-07-21T20:59:49.857Z,44.00
2023-07-21T21:02:22.883Z,43.95
2023-07-21T21:04:55.259Z,44.05
2023-07-21T21:07:27.666Z,43.96
2023-07-21T21:10:00.890Z,43.87
2023-07-21T21:12:34.442Z,43.87
2023-07-21T21:15:10.214Z,43.78
2023-07-21T21:17:43.958Z,43.75
2023-07-21T21:20:18.271Z,43.68
2023-07-21T21:22:50.708Z,43.61
2023-07-21T21:25:23.874Z,43.58
2023-07-21T21:27:57.219Z,43.61
2023-07-21T21:30:29.753Z,43.56
2023-07-21T21:33:02.198Z,43.63
2023-07-21T21:35:35.477Z,43.61
2023-07-21T21:38:08.142Z,43.58
2023-07-21T21:40:40.608Z,43.50
2023-07-21T21:43:13.111Z,43.51
2023-07-21T21:45:45.681Z,43.49
2023-07-21T21:48:18.409Z,43.46
2023-07-21T21:50:51.005Z,43.42
2023-07-21T21:53:23.432Z,43.28
2023-07-21T21:55:56.847Z,43.09
2023-07-21T21:58:33.240Z,43.18
2023-07-21T22:01:06.661Z,43.13
2023-07-21T22:03:42.823Z,43.12
2023-07-21T22:06:16.161Z,42.99
2023-07-21T22:08:48.614Z,43.00
2023-07-21T22:11:21.291Z,43.07
2023-07-21T22:13:54.205Z,43.09
2023-07-21T22:16:27.041Z,43.09
2023-07-21T22:18:59.690Z,43.04
2023-07-21T22:21:32.389Z,42.97
2023-07-21T22:24:05.331Z,43.04
2023-07-21T22:26:37.959Z,43.05
2023-07-21T22:29:10.626Z,42.92
2023-07-21T22:31:43.364Z,42.91
2023-07-21T22:34:16.970Z,43.00
2023-07-21T22:36:49.457Z,42.95
2023-07-21T22:39:24.297Z,42.88
2023-07-21T22:41:56.970Z,42.96
2023-07-21T22:44:29.350Z,42.94
2023-07-21T22:47:01.893Z,42.90
2023-07-21T22:49:34.251Z,42.91
2023-07-21T22:52:09.001Z,43.01
2023-07-21T22:54:41.683Z,43.02
2023-07-21T22:57:14.103Z,43.01
2023-07-21T22:59:46.854Z,42.82
2023-07-21T23:02:21.922Z,42.92
2023-07-21T23:04:54.948Z,42.91
2023-07-21T23:07:27.749Z,42.84
2023-07-21T23:10:00.315Z,42.89
2023-07-21T23:12:33.012Z,42.93
2023-07-21T23:15:06.576Z,42.90
2023-07-21T23:17:40.330Z,43.00
2023-07-21T23:20:15.009Z,42.98
2023-07-21T23:22:47.457Z,43.05
2023-07-21T23:25:19.947Z,43.04
2023-07-21T23:27:53.045Z,43.17
2023-07-21T23:30:25.711Z,43.19
2023-07-21T23:32:59.053Z,43.29
2023-07-21T23:35:32.239Z,43.41
2023-07-21T23:38:04.631Z,43.41
2023-07-21T23:40:37.769Z,43.49
2023-07-21T23:43:10.265Z,43.81
2023-07-21T23:45:42.742Z,43.93
2023-07-21T23:48:17.015Z,43.98
2023-07-21T23:50:49.768Z,44.01
2023-07-21T23:53:22.618Z,43.98
2023-07-21T23:55:55.250Z,44.33
2023-07-21T23:58:27.829Z,44.57
